Cimetta, Switzerland
Current Conditions -  °F | °C
As of 9:50 AM on Wednesday 22 Oct 2014 (Local Time) from LSZL Reporting Station
Broken Clouds Broken Clouds  
Wind Chill: 50°   Ceiling: 8000
Heat Index: 50°   Visibility: 6mi
Dew Point: 37°   Wind: 5mph
Humidity: 62%   Direction: NA
Pressure: 30"   Gusts: NA
Location:  46.2°N, 8.8°E
Report Text: LSZL 220750Z VRB04KT 9999 SCT050 BKN080 10/03 Q1016 RMK WHT
Loading
Personal Weather Stations






























Interactive Weather Map
Tropical Storm Tracking
New forecast layout! Learn more

10-Day Weather Forecast

Advertisements
Track Severe Weather on mobile